createdAt,value
2019-02-16T00:00:24.904Z,-2.08
2019-02-16T00:01:24.902Z,-2.08
2019-02-16T00:02:24.869Z,-2.09
2019-02-16T00:03:24.818Z,-2.15
2019-02-16T00:04:24.856Z,-2.09
2019-02-16T00:05:24.806Z,-2.10
2019-02-16T00:06:24.790Z,-2.20
2019-02-16T00:07:24.774Z,-2.13
2019-02-16T00:08:24.769Z,-2.15
2019-02-16T00:09:24.779Z,-2.15
2019-02-16T00:10:24.761Z,-2.20
2019-02-16T00:11:24.731Z,-2.16
2019-02-16T00:12:24.753Z,-2.15
2019-02-16T00:13:24.734Z,-2.21
2019-02-16T00:14:24.725Z,-2.18
2019-02-16T00:15:24.696Z,-2.24
2019-02-16T00:16:24.723Z,-2.21
2019-02-16T00:17:24.677Z,-2.27
2019-02-16T00:18:24.665Z,-2.24
2019-02-16T00:19:24.675Z,-2.26
2019-02-16T00:20:24.670Z,-2.23
2019-02-16T00:21:24.638Z,-2.29
2019-02-16T00:22:24.626Z,-2.26
2019-02-16T00:23:24.609Z,-2.21
2019-02-16T00:24:24.595Z,-2.24
2019-02-16T00:25:24.583Z,-2.29
2019-02-16T00:26:24.575Z,-2.29
2019-02-16T00:27:24.592Z,-2.30
2019-02-16T00:28:24.556Z,-2.29
2019-02-16T00:29:24.539Z,-2.26
2019-02-16T00:30:24.536Z,-2.24
2019-02-16T00:31:24.538Z,-2.34
2019-02-16T00:32:24.523Z,-2.27
2019-02-16T00:33:24.534Z,-2.34
2019-02-16T00:34:24.489Z,-2.35
2019-02-16T00:35:24.473Z,-2.40
2019-02-16T00:36:24.472Z,-2.26
2019-02-16T00:37:24.449Z,-2.35
2019-02-16T00:38:24.453Z,-2.35
2019-02-16T00:39:24.452Z,-2.37
2019-02-16T00:40:24.430Z,-2.37
2019-02-16T00:41:24.416Z,-2.39
2019-02-16T00:42:24.442Z,-2.35
2019-02-16T00:43:24.416Z,-2.37
2019-02-16T00:44:24.387Z,-2.42
2019-02-16T00:45:24.374Z,-2.35
2019-02-16T00:46:24.372Z,-2.37
2019-02-16T00:47:24.390Z,-2.40
2019-02-16T00:48:24.346Z,-2.39
2019-02-16T00:49:24.342Z,-2.43
2019-02-16T00:50:24.306Z,-2.39
2019-02-16T00:51:24.292Z,-2.39
2019-02-16T00:52:24.285Z,-2.40
2019-02-16T00:53:24.285Z,-2.42
2019-02-16T00:54:24.279Z,-2.39
2019-02-16T00:55:24.271Z,-2.42
2019-02-16T00:56:24.276Z,-2.39
2019-02-16T00:57:24.230Z,-2.43
2019-02-16T00:58:24.217Z,-2.49
2019-02-16T00:59:24.219Z,-2.45
2019-02-16T01:00:24.198Z,-2.46
2019-02-16T01:01:24.191Z,-2.48
2019-02-16T01:02:24.193Z,-2.43
2019-02-16T01:03:24.163Z,-2.45
2019-02-16T01:04:24.172Z,-2.55
2019-02-16T01:05:24.150Z,-2.61
2019-02-16T01:06:24.130Z,-2.56
2019-02-16T01:07:24.149Z,-2.60
2019-02-16T01:08:24.115Z,-2.50
2019-02-16T01:09:24.094Z,-2.55
2019-02-16T01:10:24.123Z,-2.58
2019-02-16T01:11:24.094Z,-2.60
2019-02-16T01:12:24.141Z,-2.49
2019-02-16T01:13:24.117Z,-2.50
2019-02-16T01:14:24.046Z,-2.56
2019-02-16T01:15:24.045Z,-2.56
2019-02-16T01:16:24.022Z,-2.63
2019-02-16T01:17:24.080Z,-2.58
2019-02-16T01:18:23.996Z,-2.52
2019-02-16T01:19:23.990Z,-2.53
2019-02-16T01:20:23.980Z,-2.55
2019-02-16T01:21:23.964Z,-2.56
2019-02-16T01:22:23.952Z,-2.63
2019-02-16T01:23:23.961Z,-2.66
2019-02-16T01:24:23.940Z,-2.61
2019-02-16T01:25:23.937Z,-2.66
2019-02-16T01:26:23.908Z,-2.64
2019-02-16T01:27:23.908Z,-2.60
2019-02-16T01:28:23.888Z,-2.73
2019-02-16T01:29:23.901Z,-2.73
2019-02-16T01:30:23.874Z,-2.66
2019-02-16T01:31:23.866Z,-2.63
2019-02-16T01:32:23.850Z,-2.78
2019-02-16T01:33:23.839Z,-2.66
2019-02-16T01:34:23.835Z,-2.74
2019-02-16T01:35:23.840Z,-2.66
2019-02-16T01:36:23.798Z,-2.74
2019-02-16T01:37:23.787Z,-2.73
2019-02-16T01:38:23.806Z,-2.78
2019-02-16T01:39:23.813Z,-2.68
2019-02-16T01:40:23.773Z,-2.78
2019-02-16T01:41:23.762Z,-2.64
2019-02-16T01:42:23.756Z,-2.84
2019-02-16T01:43:23.752Z,-2.82
2019-02-16T01:44:23.714Z,-2.79
2019-02-16T01:45:23.720Z,-2.73
2019-02-16T01:46:23.698Z,-2.77
2019-02-16T01:47:23.681Z,-2.82
2019-02-16T01:48:23.688Z,-2.89
2019-02-16T01:49:23.659Z,-2.85
2019-02-16T01:50:23.672Z,-2.79
2019-02-16T01:51:31.652Z,-2.88
2019-02-16T01:52:24.625Z,-2.73
2019-02-16T01:53:23.633Z,-2.82
2019-02-16T01:54:23.607Z,-2.79
2019-02-16T01:55:23.608Z,-2.82
2019-02-16T01:56:23.602Z,-2.88
2019-02-16T01:57:23.570Z,-2.88
2019-02-16T01:58:23.575Z,-2.85
2019-02-16T01:59:23.560Z,-2.79
2019-02-16T02:00:23.539Z,-2.88
2019-02-16T02:01:23.544Z,-2.89
2019-02-16T02:02:23.511Z,-2.85
2019-02-16T02:03:23.504Z,-2.85
2019-02-16T02:04:23.488Z,-2.85
2019-02-16T02:05:23.478Z,-2.89
2019-02-16T02:06:23.514Z,-2.89
2019-02-16T02:07:23.467Z,-2.86
2019-02-16T02:08:23.444Z,-2.91
2019-02-16T02:09:23.437Z,-2.85
2019-02-16T02:10:23.453Z,-2.88
2019-02-16T02:11:23.418Z,-2.94
2019-02-16T02:12:23.462Z,-2.88
2019-02-16T02:13:23.396Z,-2.91
2019-02-16T02:14:23.397Z,-2.79
2019-02-16T02:15:23.381Z,-2.81
2019-02-16T02:16:23.388Z,-2.91
2019-02-16T02:17:23.375Z,-2.86
2019-02-16T02:18:23.359Z,-2.86
2019-02-16T02:19:23.328Z,-2.85
2019-02-16T02:20:23.361Z,-2.85
2019-02-16T02:21:23.304Z,-2.91
2019-02-16T02:22:23.299Z,-2.94
2019-02-16T02:23:23.339Z,-2.89
2019-02-16T02:24:23.280Z,-2.94
2019-02-16T02:25:23.268Z,-2.92
2019-02-16T02:26:23.273Z,-2.88
2019-02-16T02:27:23.255Z,-2.92
2019-02-16T02:28:23.243Z,-2.96
2019-02-16T02:29:23.248Z,-2.85
2019-02-16T02:30:23.255Z,-2.92
2019-02-16T02:31:23.209Z,-2.92
2019-02-16T02:32:23.190Z,-2.97
2019-02-16T02:33:23.183Z,-2.94
2019-02-16T02:34:23.165Z,-2.97
2019-02-16T02:35:23.166Z,-2.91
2019-02-16T02:36:23.167Z,-2.92
2019-02-16T02:37:23.141Z,-2.89
2019-02-16T02:38:23.135Z,-2.99
2019-02-16T02:39:23.162Z,-2.97
2019-02-16T02:40:23.094Z,-2.96
2019-02-16T02:41:23.084Z,-3.10
2019-02-16T02:42:23.106Z,-3.09
2019-02-16T02:43:23.067Z,-3.12
2019-02-16T02:44:23.072Z,-3.15
2019-02-16T02:45:23.047Z,-3.10
2019-02-16T02:46:23.051Z,-3.06
2019-02-16T02:47:23.022Z,-3.05
2019-02-16T02:48:23.015Z,-3.09
2019-02-16T02:49:23.004Z,-3.03
2019-02-16T02:50:22.989Z,-3.10
2019-02-16T02:51:22.991Z,-3.12
2019-02-16T02:52:22.966Z,-3.10
2019-02-16T02:53:30.729Z,-3.14
2019-02-16T02:54:23.951Z,-3.14
2019-02-16T02:55:22.931Z,-3.23
2019-02-16T02:56:22.923Z,-3.15
2019-02-16T02:57:22.910Z,-3.14
2019-02-16T02:58:22.925Z,-3.18
2019-02-16T02:59:22.887Z,-3.23
2019-02-16T03:00:22.879Z,-3.18
2019-02-16T03:01:22.864Z,-3.17
2019-02-16T03:02:22.857Z,-3.14
2019-02-16T03:03:22.853Z,-3.23
2019-02-16T03:04:22.848Z,-3.23
2019-02-16T03:05:22.828Z,-3.24
2019-02-16T03:06:22.822Z,-3.27
2019-02-16T03:07:22.803Z,-3.27
2019-02-16T03:08:22.801Z,-3.28
2019-02-16T03:09:22.811Z,-3.24
2019-02-16T03:10:22.778Z,-3.31
2019-02-16T03:11:22.759Z,-3.33
2019-02-16T03:12:22.809Z,-3.36
2019-02-16T03:13:22.762Z,-3.30
2019-02-16T03:14:22.756Z,-3.35
2019-02-16T03:15:22.747Z,-3.30
2019-02-16T03:16:22.717Z,-3.31
2019-02-16T03:17:22.701Z,-3.27
2019-02-16T03:18:22.676Z,-3.31
2019-02-16T03:19:22.692Z,-3.33
2019-02-16T03:20:22.686Z,-3.24
2019-02-16T03:21:22.668Z,-3.31
2019-02-16T03:22:22.663Z,-3.30
2019-02-16T03:23:22.636Z,-3.38
2019-02-16T03:24:22.619Z,-3.33
2019-02-16T03:25:22.627Z,-3.31
2019-02-16T03:26:22.603Z,-3.31
2019-02-16T03:27:22.589Z,-3.36
2019-02-16T03:28:22.573Z,-3.35
2019-02-16T03:29:22.603Z,-3.38
2019-02-16T03:30:22.563Z,-3.31
2019-02-16T03:31:22.593Z,-3.45
2019-02-16T03:32:22.529Z,-3.41
2019-02-16T03:33:22.587Z,-3.33
2019-02-16T03:34:22.519Z,-3.43
2019-02-16T03:35:22.571Z,-3.33
2019-02-16T03:36:22.493Z,-3.43
2019-02-16T03:37:22.495Z,-3.48
2019-02-16T03:38:22.461Z,-3.49
2019-02-16T03:39:22.456Z,-3.49
2019-02-16T03:40:22.440Z,-3.39
2019-02-16T03:41:22.435Z,-3.42
2019-02-16T03:42:22.423Z,-3.52
2019-02-16T03:43:22.422Z,-3.52
2019-02-16T03:44:22.396Z,-3.49
2019-02-16T03:45:22.385Z,-3.48
2019-02-16T03:46:22.392Z,-3.52
2019-02-16T03:47:22.393Z,-3.53
2019-02-16T03:48:22.357Z,-3.53
2019-02-16T03:49:22.348Z,-3.52
2019-02-16T03:50:22.346Z,-3.64
2019-02-16T03:51:22.339Z,-3.64
2019-02-16T03:52:22.306Z,-3.63
2019-02-16T03:53:22.312Z,-3.67
2019-02-16T03:54:22.319Z,-3.60
2019-02-16T03:55:22.272Z,-3.62
2019-02-16T03:56:22.267Z,-3.59
2019-02-16T03:57:22.256Z,-3.62
2019-02-16T03:58:22.315Z,-3.59
2019-02-16T03:59:22.244Z,-3.59
2019-02-16T04:00:22.222Z,-3.59
2019-02-16T04:01:22.229Z,-3.66
2019-02-16T04:02:22.226Z,-3.60
2019-02-16T04:03:22.202Z,-3.66
2019-02-16T04:04:22.221Z,-3.66
2019-02-16T04:05:22.172Z,-3.69
2019-02-16T04:06:22.159Z,-3.66
2019-02-16T04:07:22.183Z,-3.66
2019-02-16T04:08:22.135Z,-3.66
2019-02-16T04:09:22.133Z,-3.66
2019-02-16T04:10:22.112Z,-3.78
2019-02-16T04:11:22.106Z,-3.64
2019-02-16T04:12:22.088Z,-3.66
2019-02-16T04:13:22.095Z,-3.63
2019-02-16T04:14:22.179Z,-3.63
2019-02-16T04:15:22.058Z,-3.71
2019-02-16T04:16:22.068Z,-3.69
2019-02-16T04:17:22.045Z,-3.62
2019-02-16T04:18:22.029Z,-3.64
2019-02-16T04:19:22.032Z,-3.62
2019-02-16T04:20:22.010Z,-3.64
2019-02-16T04:21:21.994Z,-3.64
2019-02-16T04:22:24.914Z,-3.66
2019-02-16T04:23:21.967Z,-3.62
2019-02-16T04:24:22.009Z,-3.64
2019-02-16T04:25:22.028Z,-3.71
2019-02-16T04:26:21.943Z,-3.67
2019-02-16T04:27:21.937Z,-3.66
2019-02-16T04:28:21.933Z,-3.66
2019-02-16T04:29:21.906Z,-3.66
2019-02-16T04:30:21.890Z,-3.69
2019-02-16T04:31:21.880Z,-3.71
2019-02-16T04:32:21.926Z,-3.72
2019-02-16T04:33:21.872Z,-3.67
2019-02-16T04:34:21.874Z,-3.81
2019-02-16T04:35:21.861Z,-3.72
2019-02-16T04:36:21.839Z,-3.76
2019-02-16T04:37:21.860Z,-3.66
2019-02-16T04:38:21.807Z,-3.78
2019-02-16T04:39:21.801Z,-3.76
2019-02-16T04:40:21.799Z,-3.71
2019-02-16T04:41:21.795Z,-3.75
2019-02-16T04:42:21.772Z,-3.67
2019-02-16T04:43:21.758Z,-3.63
2019-02-16T04:44:21.759Z,-3.64
2019-02-16T04:45:21.728Z,-3.60
2019-02-16T04:46:21.722Z,-3.59
2019-02-16T04:47:21.712Z,-3.66
2019-02-16T04:48:21.722Z,-3.60
2019-02-16T04:49:21.686Z,-3.66
2019-02-16T04:50:21.699Z,-3.56
2019-02-16T04:51:21.666Z,-3.62
2019-02-16T04:52:21.653Z,-3.64
2019-02-16T04:53:21.669Z,-3.67
2019-02-16T04:54:21.636Z,-3.72
2019-02-16T04:55:21.630Z,-3.67
2019-02-16T04:56:21.609Z,-3.66
2019-02-16T04:57:21.598Z,-3.71
2019-02-16T04:58:21.598Z,-3.76
2019-02-16T04:59:21.612Z,-3.72
2019-02-16T05:00:21.565Z,-3.76
2019-02-16T05:01:21.588Z,-3.76
2019-02-16T05:02:21.552Z,-3.72
2019-02-16T05:03:21.537Z,-3.63
2019-02-16T05:04:21.534Z,-3.75
2019-02-16T05:05:21.526Z,-3.78
2019-02-16T05:06:21.502Z,-3.78
2019-02-16T05:07:21.497Z,-3.90
2019-02-16T05:08:21.481Z,-3.85
2019-02-16T05:09:21.466Z,-3.85
2019-02-16T05:10:21.502Z,-3.88
2019-02-16T05:11:21.450Z,-3.85
2019-02-16T05:12:21.447Z,-3.91
2019-02-16T05:13:21.431Z,-3.85
2019-02-16T05:14:21.441Z,-3.91
2019-02-16T05:15:28.623Z,-3.90
2019-02-16T05:16:21.390Z,-3.91
2019-02-16T05:17:21.390Z,-3.90
2019-02-16T05:18:21.368Z,-3.94
2019-02-16T05:19:21.360Z,-3.94
2019-02-16T05:20:21.349Z,-3.81
2019-02-16T05:21:21.376Z,-3.90
2019-02-16T05:22:21.328Z,-3.86
2019-02-16T05:23:21.329Z,-3.83
2019-02-16T05:24:21.318Z,-3.93
2019-02-16T05:25:21.366Z,-3.93
2019-02-16T05:26:21.334Z,-3.90
2019-02-16T05:27:21.280Z,-3.94
2019-02-16T05:28:21.261Z,-3.91
2019-02-16T05:29:21.263Z,-3.90
2019-02-16T05:30:21.251Z,-3.93
2019-02-16T05:31:21.263Z,-3.97
2019-02-16T05:32:21.229Z,-3.93
2019-02-16T05:33:21.223Z,-3.96
2019-02-16T05:34:21.203Z,-3.91
2019-02-16T05:35:21.184Z,-3.97
2019-02-16T05:36:21.199Z,-4.00
2019-02-16T05:37:21.201Z,-4.06
2019-02-16T05:38:21.160Z,-4.00
2019-02-16T05:39:21.168Z,-4.00
2019-02-16T05:40:21.184Z,-4.03
2019-02-16T05:41:21.129Z,-4.03
2019-02-16T05:42:21.133Z,-3.99
2019-02-16T05:43:21.096Z,-4.06
2019-02-16T05:44:21.094Z,-4.04
2019-02-16T05:45:21.083Z,-4.01
2019-02-16T05:46:21.064Z,-4.01
2019-02-16T05:47:28.942Z,-3.97
2019-02-16T05:48:21.095Z,-4.04
2019-02-16T05:49:21.107Z,-4.01
2019-02-16T05:50:21.196Z,-3.97
2019-02-16T05:51:21.073Z,-4.00
2019-02-16T05:52:21.041Z,-3.99
2019-02-16T05:53:21.029Z,-4.00
2019-02-16T05:54:21.023Z,-3.97
2019-02-16T05:55:21.055Z,-4.07
2019-02-16T05:56:20.982Z,-4.06
2019-02-16T05:57:20.996Z,-4.14
2019-02-16T05:58:20.960Z,-4.15
2019-02-16T05:59:21.018Z,-4.11
2019-02-16T06:00:20.948Z,-4.15
2019-02-16T06:01:20.926Z,-4.15
2019-02-16T06:02:20.944Z,-4.14
2019-02-16T06:03:20.927Z,-4.18
2019-02-16T06:04:20.972Z,-4.20
2019-02-16T06:05:20.883Z,-4.20
2019-02-16T06:06:20.882Z,-4.17
2019-02-16T06:07:20.942Z,-4.12
2019-02-16T06:08:20.964Z,-4.12
2019-02-16T06:09:20.864Z,-4.24
2019-02-16T06:10:20.847Z,-4.25
2019-02-16T06:11:20.879Z,-4.24
2019-02-16T06:12:20.849Z,-4.14
2019-02-16T06:13:20.814Z,-4.17
2019-02-16T06:14:20.804Z,-4.24
2019-02-16T06:15:20.757Z,-4.15
2019-02-16T06:16:20.752Z,-4.24
2019-02-16T06:17:20.853Z,-4.15
2019-02-16T06:18:20.769Z,-4.18
2019-02-16T06:19:20.751Z,-4.22
2019-02-16T06:20:20.728Z,-4.21
2019-02-16T06:21:20.808Z,-4.14
2019-02-16T06:22:20.714Z,-4.29
2019-02-16T06:23:20.672Z,-4.22
2019-02-16T06:24:20.687Z,-4.17
2019-02-16T06:25:20.799Z,-4.14
2019-02-16T06:26:20.656Z,-4.21
2019-02-16T06:27:20.647Z,-4.18
2019-02-16T06:28:20.658Z,-4.11
2019-02-16T06:29:20.618Z,-4.10
2019-02-16T06:30:20.615Z,-4.06
2019-02-16T06:31:20.637Z,-4.17
2019-02-16T06:32:20.572Z,-4.10
2019-02-16T06:33:20.566Z,-4.04
2019-02-16T06:34:20.578Z,-4.15
2019-02-16T06:35:20.553Z,-4.11
2019-02-16T06:36:20.564Z,-4.18
2019-02-16T06:37:20.540Z,-4.10
2019-02-16T06:38:20.555Z,-4.07
2019-02-16T06:39:20.584Z,-4.11
2019-02-16T06:40:20.499Z,-4.01
2019-02-16T06:41:20.528Z,-4.00
2019-02-16T06:42:20.494Z,-3.97
2019-02-16T06:43:20.497Z,-3.94
2019-02-16T06:44:20.459Z,-4.11
2019-02-16T06:45:20.494Z,-3.96
2019-02-16T06:46:20.434Z,-4.00
2019-02-16T06:47:20.424Z,-3.93
2019-02-16T06:48:20.410Z,-3.94
2019-02-16T06:49:20.452Z,-3.93
2019-02-16T06:50:20.451Z,-3.90
2019-02-16T06:51:20.384Z,-3.91
2019-02-16T06:52:20.442Z,-3.90
2019-02-16T06:53:20.357Z,-3.90
2019-02-16T06:54:20.394Z,-3.81
2019-02-16T06:55:20.333Z,-3.81
2019-02-16T06:56:20.315Z,-3.86
2019-02-16T06:57:20.344Z,-3.88
2019-02-16T06:58:20.319Z,-3.83
2019-02-16T06:59:20.409Z,-3.85
2019-02-16T07:00:20.309Z,-3.83
2019-02-16T07:01:20.283Z,-3.86
2019-02-16T07:02:20.269Z,-3.81
2019-02-16T07:03:20.272Z,-3.75
2019-02-16T07:04:20.265Z,-3.83
2019-02-16T07:05:20.279Z,-3.75
2019-02-16T07:06:20.222Z,-3.78
2019-02-16T07:07:20.198Z,-3.72
2019-02-16T07:08:20.392Z,-3.64
2019-02-16T07:09:20.234Z,-3.63
2019-02-16T07:10:20.173Z,-3.66
2019-02-16T07:11:20.194Z,-3.63
2019-02-16T07:12:20.218Z,-3.62
2019-02-16T07:13:20.138Z,-3.64
2019-02-16T07:14:20.199Z,-3.60
2019-02-16T07:15:20.172Z,-3.48
2019-02-16T07:16:20.130Z,-3.39
2019-02-16T07:17:20.141Z,-3.49
2019-02-16T07:18:20.129Z,-3.43
2019-02-16T07:19:20.088Z,-3.43
2019-02-16T07:20:20.132Z,-3.33
2019-02-16T07:21:20.109Z,-3.33
2019-02-16T07:22:20.115Z,-3.31
2019-02-16T07:23:22.567Z,-3.28
2019-02-16T07:24:20.109Z,-3.25
2019-02-16T07:25:20.050Z,-3.21
2019-02-16T07:26:20.022Z,-3.18
2019-02-16T07:27:20.018Z,-3.15
2019-02-16T07:28:19.992Z,-3.10
2019-02-16T07:29:19.952Z,-3.10
2019-02-16T07:30:19.972Z,-3.03
2019-02-16T07:31:19.962Z,-3.12
2019-02-16T07:32:19.941Z,-3.00
2019-02-16T07:33:20.006Z,-3.09
2019-02-16T07:34:19.924Z,-2.94
2019-02-16T07:35:19.948Z,-2.89
2019-02-16T07:36:22.028Z,-2.86
2019-02-16T07:37:19.876Z,-2.78
2019-02-16T07:38:19.886Z,-2.86
2019-02-16T07:39:19.903Z,-2.74
2019-02-16T07:40:19.895Z,-2.73
2019-02-16T07:41:19.835Z,-2.63
2019-02-16T07:42:19.813Z,-2.66
2019-02-16T07:43:19.805Z,-2.67
2019-02-16T07:44:19.864Z,-2.46
2019-02-16T07:45:19.816Z,-2.43
2019-02-16T07:46:19.808Z,-2.45
2019-02-16T07:47:19.789Z,-2.39
2019-02-16T07:48:19.863Z,-2.37
2019-02-16T07:49:19.894Z,-2.23
2019-02-16T07:50:19.744Z,-2.18
2019-02-16T07:51:19.760Z,-2.18
2019-02-16T07:52:19.727Z,-2.16
2019-02-16T07:53:19.737Z,-2.09
2019-02-16T07:54:19.741Z,-1.95
2019-02-16T07:55:20.710Z,-1.90
2019-02-16T07:56:19.668Z,-1.85
2019-02-16T07:57:19.689Z,-1.73
2019-02-16T07:58:19.686Z,-1.70
2019-02-16T07:59:19.693Z,-1.69
2019-02-16T08:00:19.655Z,-1.61
2019-02-16T08:01:19.668Z,-1.64
2019-02-16T08:02:19.649Z,-1.55
2019-02-16T08:03:19.639Z,-1.43
2019-02-16T08:04:19.621Z,-1.43
2019-02-16T08:05:19.651Z,-1.41
2019-02-16T08:06:19.595Z,-1.23
2019-02-16T08:07:19.560Z,-1.17
2019-02-16T08:08:19.615Z,-1.15
2019-02-16T08:09:24.692Z,-1.10
2019-02-16T08:10:19.570Z,-1.07
2019-02-16T08:11:19.582Z,-0.98
2019-02-16T08:12:19.502Z,-0.99
2019-02-16T08:13:19.512Z,-0.92
2019-02-16T08:14:19.529Z,-0.85
2019-02-16T08:15:19.541Z,-0.79
2019-02-16T08:16:19.472Z,-0.78
2019-02-16T08:17:19.510Z,-0.72
2019-02-16T08:18:19.514Z,-0.72
2019-02-16T08:19:19.440Z,-0.64
2019-02-16T08:20:19.548Z,-0.46
2019-02-16T08:21:19.480Z,-0.47
2019-02-16T08:22:19.391Z,-0.43
2019-02-16T08:23:19.405Z,-0.42
2019-02-16T08:24:19.399Z,-0.37
2019-02-16T08:25:19.396Z,-0.25
2019-02-16T08:26:19.382Z,-0.23
2019-02-16T08:27:19.475Z,-0.18
2019-02-16T08:28:19.345Z,-0.15
2019-02-16T08:29:19.387Z,-0.11
2019-02-16T08:30:19.333Z,-0.05
2019-02-16T08:31:19.289Z,0.07
2019-02-16T08:32:19.316Z,-0.04
2019-02-16T08:33:19.261Z,0.08
2019-02-16T08:34:19.262Z,0.13
2019-02-16T08:35:19.318Z,0.13
2019-02-16T08:36:19.225Z,0.21
2019-02-16T08:37:19.215Z,0.21
2019-02-16T08:38:19.277Z,0.23
2019-02-16T08:39:19.224Z,0.32
2019-02-16T08:40:19.218Z,0.35
2019-02-16T08:41:19.215Z,0.42
2019-02-16T08:42:19.166Z,0.46
2019-02-16T08:43:19.153Z,0.51
2019-02-16T08:44:19.130Z,0.60
2019-02-16T08:45:19.168Z,0.68
2019-02-16T08:46:19.126Z,0.72
2019-02-16T08:47:19.153Z,0.78
2019-02-16T08:48:19.109Z,0.84
2019-02-16T08:49:19.078Z,0.84
2019-02-16T08:50:19.095Z,0.98
2019-02-16T08:51:19.095Z,0.94
2019-02-16T08:52:19.066Z,0.97
2019-02-16T08:53:19.061Z,0.94
2019-02-16T08:54:19.060Z,1.08
2019-02-16T08:55:19.014Z,1.06
2019-02-16T08:56:19.036Z,1.11
2019-02-16T08:57:19.030Z,1.18
2019-02-16T08:58:18.983Z,1.14
2019-02-16T08:59:18.997Z,1.27
2019-02-16T09:00:18.989Z,1.30
2019-02-16T09:01:18.984Z,1.33
2019-02-16T09:02:19.015Z,1.34
2019-02-16T09:03:18.982Z,1.45
2019-02-16T09:04:18.933Z,1.48
2019-02-16T09:05:18.968Z,1.54
2019-02-16T09:06:18.930Z,1.60
2019-02-16T09:07:18.888Z,1.69
2019-02-16T09:08:18.912Z,1.62
2019-02-16T09:09:18.903Z,1.72
2019-02-16T09:10:18.900Z,1.86
2019-02-16T09:11:18.916Z,1.91
2019-02-16T09:12:18.837Z,1.90
2019-02-16T09:13:18.822Z,1.88
2019-02-16T09:14:18.835Z,2.06
2019-02-16T09:15:18.790Z,2.07
2019-02-16T09:16:18.818Z,2.12
2019-02-16T09:17:18.813Z,2.16
2019-02-16T09:18:18.776Z,2.21
2019-02-16T09:19:18.766Z,2.34
2019-02-16T09:20:18.744Z,2.31
2019-02-16T09:21:18.755Z,2.46
2019-02-16T09:22:18.716Z,2.59
2019-02-16T09:23:18.768Z,2.52
2019-02-16T09:24:18.707Z,2.71
2019-02-16T09:25:18.690Z,2.67
2019-02-16T09:26:18.681Z,2.79
2019-02-16T09:27:18.697Z,2.90
2019-02-16T09:28:18.656Z,2.89
2019-02-16T09:29:18.647Z,2.87
2019-02-16T09:30:18.641Z,2.97
2019-02-16T09:31:18.642Z,3.13
2019-02-16T09:32:18.601Z,3.08
2019-02-16T09:33:18.621Z,3.10
2019-02-16T09:34:18.612Z,3.15
2019-02-16T09:35:18.582Z,3.24
2019-02-16T09:36:18.589Z,3.35
2019-02-16T09:37:18.567Z,3.39
2019-02-16T09:38:18.606Z,3.32
2019-02-16T09:39:18.555Z,3.48
2019-02-16T09:40:18.570Z,3.48
2019-02-16T09:41:18.518Z,3.54
2019-02-16T09:42:18.512Z,3.55
2019-02-16T09:43:18.498Z,3.70
2019-02-16T09:44:18.504Z,3.72
2019-02-16T09:45:18.480Z,3.76
2019-02-16T09:46:18.493Z,3.80
2019-02-16T09:47:18.487Z,3.91
2019-02-16T09:48:18.472Z,3.91
2019-02-16T09:49:18.430Z,4.05
2019-02-16T09:50:18.484Z,4.14
2019-02-16T09:51:18.452Z,4.20
2019-02-16T09:52:18.391Z,4.22
2019-02-16T09:53:18.392Z,4.29
2019-02-16T09:54:18.362Z,4.33
2019-02-16T09:55:18.375Z,4.34
2019-02-16T09:56:18.384Z,4.45
2019-02-16T09:57:18.372Z,4.40
2019-02-16T09:58:18.367Z,4.42
2019-02-16T09:59:18.320Z,4.51
2019-02-16T10:00:18.303Z,4.47
2019-02-16T10:01:18.346Z,4.54
2019-02-16T10:02:18.315Z,4.66
2019-02-16T10:03:18.287Z,4.69
2019-02-16T10:04:18.260Z,4.78
2019-02-16T10:05:18.245Z,4.78
2019-02-16T10:06:18.263Z,4.89
2019-02-16T10:07:18.252Z,4.99
2019-02-16T10:08:18.245Z,4.94
2019-02-16T10:09:18.190Z,5.03
2019-02-16T10:10:18.180Z,5.13
2019-02-16T10:11:18.230Z,5.17
2019-02-16T10:12:18.207Z,5.18
2019-02-16T10:13:18.210Z,5.24
2019-02-16T10:14:18.153Z,5.22
2019-02-16T10:15:18.131Z,5.31
2019-02-16T10:16:18.126Z,5.33
2019-02-16T10:17:18.128Z,5.28
2019-02-16T10:18:18.139Z,5.31
2019-02-16T10:19:18.079Z,5.40
2019-02-16T10:20:18.077Z,5.42
2019-02-16T10:21:18.081Z,5.49
2019-02-16T10:22:18.125Z,5.51
2019-02-16T10:23:18.059Z,5.49
2019-02-16T10:24:18.378Z,5.65
2019-02-16T10:25:18.065Z,5.58
2019-02-16T10:26:18.030Z,5.67
2019-02-16T10:27:18.054Z,5.75
2019-02-16T10:28:18.020Z,5.75
2019-02-16T10:29:18.050Z,5.72
2019-02-16T10:30:18.009Z,5.86
2019-02-16T10:31:25.457Z,5.94
2019-02-16T10:32:25.019Z,5.97
2019-02-16T10:33:25.198Z,5.97
2019-02-16T10:34:17.911Z,6.09
2019-02-16T10:35:17.906Z,6.08
2019-02-16T10:36:17.901Z,6.17
2019-02-16T10:37:17.879Z,6.22
2019-02-16T10:38:17.884Z,6.25
2019-02-16T10:39:17.863Z,6.30
2019-02-16T10:40:17.854Z,6.38
2019-02-16T10:41:17.837Z,6.38
2019-02-16T10:42:17.869Z,6.52
2019-02-16T10:43:17.837Z,6.59
2019-02-16T10:44:17.801Z,6.61
2019-02-16T10:45:17.795Z,6.67
2019-02-16T10:46:17.796Z,6.73
2019-02-16T10:47:17.767Z,6.67
2019-02-16T10:48:17.797Z,6.71
2019-02-16T10:49:17.753Z,6.76
2019-02-16T10:50:17.742Z,6.91
2019-02-16T10:51:17.733Z,6.99
2019-02-16T10:52:17.730Z,6.95
2019-02-16T10:53:17.700Z,7.02
2019-02-16T10:54:26.618Z,7.02
2019-02-16T10:55:18.720Z,7.03
2019-02-16T10:56:17.671Z,7.23
2019-02-16T10:57:17.675Z,7.20
2019-02-16T10:58:17.655Z,7.21
2019-02-16T10:59:18.675Z,7.28
2019-02-16T11:00:17.642Z,7.39
2019-02-16T11:01:17.611Z,7.43
2019-02-16T11:02:17.616Z,7.53
2019-02-16T11:03:17.610Z,7.67
2019-02-16T11:04:17.582Z,7.53
2019-02-16T11:05:17.625Z,7.64
2019-02-16T11:06:17.632Z,7.71
2019-02-16T11:07:17.564Z,7.77
2019-02-16T11:08:17.533Z,7.74
2019-02-16T11:09:17.541Z,7.85
2019-02-16T11:10:17.518Z,7.77
2019-02-16T11:11:17.504Z,7.92
2019-02-16T11:12:17.515Z,7.90
2019-02-16T11:13:17.483Z,7.98
2019-02-16T11:14:17.487Z,8.01
2019-02-16T11:15:17.476Z,8.04
2019-02-16T11:16:17.451Z,8.08
2019-02-16T11:17:17.501Z,8.23
2019-02-16T11:18:17.436Z,8.30
2019-02-16T11:19:17.433Z,8.29
2019-02-16T11:20:17.398Z,8.30
2019-02-16T11:21:17.403Z,8.41
2019-02-16T11:22:17.379Z,8.40
2019-02-16T11:23:17.403Z,8.45
2019-02-16T11:24:17.384Z,8.50
2019-02-16T11:25:17.366Z,8.55
2019-02-16T11:26:17.394Z,8.56
2019-02-16T11:27:17.373Z,8.68
2019-02-16T11:28:17.326Z,8.70
2019-02-16T11:29:17.373Z,8.65
2019-02-16T11:30:17.312Z,8.79
2019-02-16T11:31:17.293Z,8.73
2019-02-16T11:32:17.273Z,8.80
2019-02-16T11:33:17.257Z,8.86
2019-02-16T11:34:17.252Z,8.81
2019-02-16T11:35:17.278Z,8.91
2019-02-16T11:36:17.241Z,8.96
2019-02-16T11:37:17.217Z,9.13
2019-02-16T11:38:17.209Z,9.04
2019-02-16T11:39:17.213Z,9.08
2019-02-16T11:40:17.215Z,9.08
2019-02-16T11:41:19.192Z,9.18
2019-02-16T11:42:17.157Z,9.18
2019-02-16T11:43:17.148Z,9.23
2019-02-16T11:44:17.142Z,9.28
2019-02-16T11:45:17.136Z,9.33
2019-02-16T11:46:17.113Z,9.33
2019-02-16T11:47:17.148Z,9.43
2019-02-16T11:48:17.101Z,9.40
2019-02-16T11:49:17.079Z,9.43
2019-02-16T11:50:17.078Z,9.53
2019-02-16T11:51:17.080Z,9.58
2019-02-16T11:52:17.048Z,9.64
2019-02-16T11:53:17.054Z,9.60
2019-02-16T11:54:17.022Z,9.74
2019-02-16T11:55:17.010Z,9.83
2019-02-16T11:56:17.050Z,9.78
2019-02-16T11:57:16.993Z,9.84
2019-02-16T11:58:17.000Z,9.81
2019-02-16T11:59:16.981Z,9.86
2019-02-16T12:00:16.964Z,9.89
2019-02-16T12:01:16.948Z,9.91
2019-02-16T12:02:16.933Z,9.97
2019-02-16T12:03:19.052Z,9.97
2019-02-16T12:04:17.288Z,9.96
2019-02-16T12:05:16.957Z,10.01
2019-02-16T12:06:16.889Z,10.01
2019-02-16T12:07:16.880Z,10.01
2019-02-16T12:08:16.888Z,10.02
2019-02-16T12:09:16.871Z,10.07
2019-02-16T12:10:16.845Z,10.05
2019-02-16T12:11:16.847Z,10.09
2019-02-16T12:12:16.831Z,10.11
2019-02-16T12:13:16.812Z,10.12
2019-02-16T12:14:17.872Z,10.20
2019-02-16T12:15:16.789Z,10.20
2019-02-16T12:16:16.780Z,10.34
2019-02-16T12:17:16.774Z,10.36
2019-02-16T12:18:16.757Z,10.47
2019-02-16T12:19:16.757Z,10.44
2019-02-16T12:20:16.740Z,10.41
2019-02-16T12:21:16.726Z,10.52
2019-02-16T12:22:16.713Z,10.61
2019-02-16T12:23:16.697Z,10.55
2019-02-16T12:24:16.731Z,10.56
2019-02-16T12:25:16.679Z,10.66
2019-02-16T12:26:16.658Z,10.76
2019-02-16T12:27:16.713Z,10.78
2019-02-16T12:28:16.640Z,10.76
2019-02-16T12:29:16.652Z,10.79
2019-02-16T12:30:16.622Z,10.86
2019-02-16T12:31:16.656Z,10.89
2019-02-16T12:32:16.601Z,11.02
2019-02-16T12:33:16.579Z,11.02
2019-02-16T12:34:16.577Z,11.03
2019-02-16T12:35:16.636Z,11.07
2019-02-16T12:36:16.559Z,11.07
2019-02-16T12:37:16.539Z,11.14
2019-02-16T12:38:16.525Z,11.21
2019-02-16T12:39:16.515Z,11.18
2019-02-16T12:40:16.509Z,11.21
2019-02-16T12:41:16.500Z,11.25
2019-02-16T12:42:16.489Z,11.19
2019-02-16T12:43:16.485Z,11.32
2019-02-16T12:44:16.473Z,11.25
2019-02-16T12:45:16.449Z,11.28
2019-02-16T12:46:16.454Z,11.28
2019-02-16T12:47:16.439Z,11.39
2019-02-16T12:48:16.410Z,11.39
2019-02-16T12:49:16.414Z,11.42
2019-02-16T12:50:16.398Z,11.47
2019-02-16T12:51:16.386Z,11.51
2019-02-16T12:52:16.386Z,11.46
2019-02-16T12:53:16.366Z,11.58
2019-02-16T12:54:16.349Z,11.58
2019-02-16T12:55:16.346Z,11.70
2019-02-16T12:56:16.321Z,11.80
2019-02-16T12:57:16.338Z,11.80
2019-02-16T12:58:16.322Z,11.94
2019-02-16T12:59:16.295Z,11.96